ADDS METAR Data INFO
IDs: Format: Raw Decoded Include TAF

Data at: 1043 UTC 19 Oct 2017

K28J 191035Z AUTO 35007KT 10SM BKN004 OVC008 20/20 A3013 RMK AO2
K28J 191015Z AUTO 36006KT 10SM SCT004 BKN008 BKN019 20/20 A3012 RMK AO2
K28J 190955Z AUTO 35006KT 10SM FEW006 SCT020 BKN036 20/20 A3012 RMK AO2 P0001
K28J 190935Z AUTO 36005KT 5SM -RA FEW019 BKN025 OVC033 20/20 A3012 RMK AO2
K28J 190915Z AUTO 35004KT 10SM SCT008 BKN027 BKN044 20/20 A3011 RMK AO2
K28J 190855Z AUTO 02005KT 10SM FEW006 SCT011 BKN017 20/20 A3011 RMK AO2
K28J 190835Z AUTO 36005KT 10SM FEW018 BKN023 OVC050 20/20 A3011 RMK AO2
K28J 190815Z AUTO 36004KT 10SM FEW025 BKN034 OVC048 20/20 A3011 RMK AO2
K28J 190755Z AUTO 36003KT 10SM FEW020 SCT024 BKN029 20/20 A3011 RMK AO2
K28J 190735Z AUTO 01004KT 10SM SCT022 BKN028 BKN037 20/20 A3011 RMK AO2
K28J 190715Z AUTO 36004KT 10SM BKN019 BKN044 20/20 A3012 RMK AO2
K28J 190655Z AUTO 36003KT 10SM OVC019 20/20 A3012 RMK AO2
K28J 190635Z AUTO 01004KT 10SM OVC019 20/20 A3013 RMK AO2
K28J 190615Z AUTO 01004KT 10SM OVC021 20/20 A3013 RMK AO2
K28J 190555Z AUTO 35003KT 10SM OVC019 20/20 A3013 RMK AO2
K28J 190535Z AUTO 36004KT 10SM BKN024 20/20 A3014 RMK AO2
K28J 190515Z AUTO 00000KT 10SM SCT024 SCT037 BKN047 20/20 A3015 RMK AO2
K28J 190455Z AUTO 34004KT 10SM FEW032 SCT039 BKN047 20/20 A3015 RMK AO2
K28J 190435Z AUTO 34003KT 10SM FEW025 SCT034 BKN039 20/20 A3016 RMK AO2
K28J 190415Z AUTO 36003KT 10SM SCT023 BKN027 BKN033 20/20 A3016 RMK AO2
K28J 190355Z AUTO 01003KT 10SM SCT021 BKN025 OVC055 20/20 A3017 RMK AO2
K28J 190335Z AUTO 36006KT 10SM BKN029 BKN034 OVC044 21/21 A3017 RMK AO2
K28J 190315Z AUTO 02006KT 10SM FEW033 BKN040 OVC046 22/22 A3017 RMK AO2
K28J 190255Z AUTO 04007KT 10SM FEW015 BKN036 OVC043 22/22 A3017 RMK AO2
K28J 190235Z AUTO 04007KT 10SM SCT015 BKN027 OVC044 22/22 A3017 RMK AO2
K28J 190215Z AUTO 01005KT 10SM FEW013 BKN035 OVC043 22/22 A3017 RMK AO2
K28J 190155Z AUTO 03007KT 10SM SCT013 BKN020 OVC033 22/22 A3017 RMK AO2
K28J 190135Z AUTO 03007KT 10SM FEW014 OVC021 22/21 A3016 RMK AO2
K28J 190115Z AUTO 04007KT 360V060 10SM BKN021 22/21 A3017 RMK AO2
K28J 190055Z AUTO 03007KT 10SM BKN021 OVC040 22/21 A3017 RMK AO2
K28J 190035Z AUTO 02007KT 10SM BKN021 OVC037 22/21 A3016 RMK AO2
K28J 190015Z AUTO 03009KT 10SM OVC021 22/21 A3016 RMK AO2
K28J 182355Z AUTO 03009KT 10SM BKN021 OVC032 23/21 A3015 RMK AO2
K28J 182335Z AUTO 03008KT 10SM BKN023 OVC060 23/21 A3015 RMK AO2
K28J 182315Z AUTO 04008G17KT 10SM BKN023 BKN043 OVC050 23/20 A3015 RMK AO2
K28J 182255Z AUTO 04010G16KT 10SM SCT023 SCT038 BKN044 23/20 A3014 RMK AO2
K28J 182235Z AUTO 04012G20KT 9SM BKN023 BKN030 BKN038 24/20 A3014 RMK AO2
K28J 182215Z AUTO 05008KT 10SM SCT025 24/20 A3014 RMK AO2
K28J 182155Z AUTO 07012G20KT 10SM SCT027 BKN031 25/19 A3014 RMK AO2
K28J 182135Z AUTO 06009G16KT 10SM SCT028 25/20 A3014 RMK AO2
K28J 182115Z AUTO 05010G19KT 10SM SCT032 25/19 A3013 RMK AO2
K28J 182055Z AUTO 07013G18KT 10SM SCT035 26/19 A3013 RMK AO2
K28J 182035Z AUTO 08014G19KT 10SM SCT039 26/18 A3013 RMK AO2
K28J 182015Z AUTO 06009G16KT 10SM SCT041 26/19 A3013 RMK AO2
K28J 181955Z AUTO 07014G20KT 10SM SCT043 27/18 A3012 RMK AO2
K28J 181935Z AUTO 06012G20KT 10SM CLR 27/17 A3013 RMK AO2
K28J 181915Z AUTO 06013G18KT 10SM FEW050 SCT120 27/17 A3013 RMK AO2
K28J 181855Z AUTO 06012KT 10SM FEW050 SCT110 27/17 A3014 RMK AO2
K28J 181835Z AUTO 06011G19KT 10SM FEW048 FEW110 27/18 A3015 RMK AO2
K28J 181815Z AUTO 08014G19KT 10SM FEW048 28/18 A3015 RMK AO2
K28J 181755Z AUTO 09012G17KT 10SM FEW110 28/18 A3015 RMK AO2
K28J 181735Z AUTO 08010G20KT 10SM SCT110 27/18 A3016 RMK AO2
K28J 181715Z AUTO 07012KT 10SM FEW041 FEW050 BKN110 27/18 A3016 RMK AO2
K28J 181655Z AUTO 10011G20KT 060V120 10SM FEW041 SCT050 BKN110 27/19 A3016 RMK AO2
K28J 181635Z AUTO 08014G22KT 10SM FEW043 SCT110 27/18 A3017 RMK AO2
K28J 181615Z AUTO 09015G23KT 10SM FEW037 SCT046 28/18 A3017 RMK AO2
K28J 181555Z AUTO 08011G20KT 050V110 10SM SCT037 BKN048 28/19 A3017 RMK AO2
K28J 181535Z AUTO 07013G18KT 10SM SCT035 27/20 A3017 RMK AO2
K28J 181515Z AUTO 08014G21KT 10SM FEW029 26/20 A3017 RMK AO2
K28J 181455Z AUTO 05008KT 10SM FEW065 25/22 A3017 RMK AO2
K28J 181435Z AUTO 04008G14KT 10SM FEW044 BKN065 23/22 A3018 RMK AO2
K28J 181415Z AUTO 01004KT 9SM FEW024 SCT038 BKN047 20/20 A3018 RMK AO2
K28J 181355Z AUTO 02004KT 10SM FEW021 SCT030 BKN038 19/19 A3018 RMK AO2
K28J 181335Z AUTO 35005KT 6SM BR SCT024 SCT031 BKN040 20/19 A3017 RMK AO2
K28J 181315Z AUTO 34003KT 10SM SCT024 SCT031 BKN040 19/18 A3017 RMK AO2
K28J 181255Z AUTO 36004KT 10SM SCT023 BKN029 BKN036 18/18 A3016 RMK AO2
K28J 181235Z AUTO 35004KT 10SM BKN021 BKN029 OVC046 17/17 A3015 RMK AO2
K28J 181215Z AUTO 31003KT 10SM BKN021 OVC029 16/16 A3015 RMK AO2
K28J 181155Z AUTO 19004KT 10SM BKN023 OVC038 16/16 A3015 RMK AO2
K28J 181135Z AUTO 33006KT 10SM BKN023 BKN030 OVC036 16/16 A3013 RMK AO2
K28J 181115Z AUTO 34006KT 10SM BKN025 OVC030 16/16 A3013 RMK AO2
K28J 181055Z AUTO 34005KT 10SM OVC027 16/16 A3012 RMK AO2
K28J 181035Z AUTO 34004KT 10SM BKN025 OVC032 17/17 A3012 RMK AO2
K28J 181015Z AUTO 34005KT 10SM OVC025 17/17 A3012 RMK AO2
K28J 180955Z AUTO 32005KT 10SM BKN025 OVC031 17/17 A3012 RMK AO2
K28J 180935Z AUTO 33003KT 10SM FEW022 BKN028 OVC041 17/17 A3011 RMK AO2
K28J 180915Z AUTO 34004KT 10SM BKN022 OVC035 17/17 A3011 RMK AO2
K28J 180855Z AUTO 34005KT 10SM OVC022 17/17 A3011 RMK AO2
K28J 180835Z AUTO 34006KT 10SM BKN022 OVC040 17/17 A3010 RMK AO2
K28J 180815Z AUTO 35005KT 10SM SCT022 BKN041 OVC047 17/17 A3010 RMK AO2
K28J 180755Z AUTO 35005KT 10SM BKN022 OVC043 17/17 A3010 RMK AO2
K28J 180735Z AUTO 35005KT 10SM SCT025 BKN030 OVC043 18/18 A3011 RMK AO2
K28J 180715Z AUTO 36005KT 10SM FEW023 OVC034 17/17 A3011 RMK AO2
K28J 180655Z AUTO 35005KT 10SM BKN023 OVC034 18/18 A3012 RMK AO2
K28J 180635Z AUTO 36005KT 10SM OVC023 18/18 A3012 RMK AO2
K28J 180615Z AUTO 34005KT 10SM BKN023 OVC035 17/17 A3012 RMK AO2
K28J 180555Z AUTO 36006KT 10SM SCT021 BKN030 BKN037 17/17 A3012 RMK AO2
K28J 180535Z AUTO 35005KT 10SM SCT021 BKN027 OVC041 18/18 A3013 RMK AO2
K28J 180515Z AUTO 35007KT 10SM SCT028 BKN034 OVC041 18/18 A3013 RMK AO2
K28J 180455Z AUTO 36005KT 10SM BKN024 OVC031 18/18 A3013 RMK AO2
K28J 180435Z AUTO 35006KT 10SM OVC024 18/18 A3013 RMK AO2
K28J 180415Z AUTO 35007KT 10SM BKN026 OVC031 18/18 A3013 RMK AO2
K28J 180355Z AUTO 35006KT 10SM BKN028 18/18 A3014 RMK AO2
K28J 180335Z AUTO 35006KT 10SM BKN025 OVC030 18/18 A3015 RMK AO2
K28J 180315Z AUTO 33004KT 10SM BKN023 OVC030 19/19 A3016 RMK AO2
K28J 180255Z AUTO 36004KT 10SM OVC021 19/19 A3016 RMK AO2
K28J 180235Z AUTO 01005KT 10SM OVC023 19/19 A3016 RMK AO2
K28J 180215Z AUTO 02006KT 10SM BKN021 OVC028 19/19 A3015 RMK AO2
K28J 180155Z AUTO 01005KT 10SM OVC021 19/19 A3015 RMK AO2
K28J 180135Z AUTO 01007KT 10SM BKN021 BKN027 OVC039 19/19 A3015 RMK AO2
K28J 180115Z AUTO 36007KT 10SM OVC021 19/19 A3015 RMK AO2
K28J 180055Z AUTO 01007KT 10SM BKN023 OVC036 19/19 A3014 RMK AO2
K28J 180035Z AUTO 02006KT 10SM OVC021 19/19 A3014 RMK AO2
K28J 180015Z AUTO 01008KT 10SM OVC021 19/19 A3014 RMK AO2
K28J 172355Z AUTO 01006KT 10SM OVC019 20/19 A3014 RMK AO2
K28J 172335Z AUTO 03009KT 10SM OVC019 20/19 A3013 RMK AO2
K28J 172315Z AUTO 02010G15KT 10SM OVC019 20/19 A3013 RMK AO2
K28J 172255Z AUTO 02008G16KT 10SM BKN019 OVC027 20/19 A3012 RMK AO2